< < Back
Terminal Aerodrome Forecast


Current Version              Previous Versions:   1  2  3  4  5  6  7  8  9  

Terminal Aerodrome Forecast

952
FTUS42 KGSP 181300 AAB
TAFGSP
TAF AMD
KGSP 181303Z 1813/1912 02005KT P6SM SCT025 BKN045
      TEMPO 1813/1815 BKN025 OVC045
     FM181500 05005KT P6SM BKN050
     FM181800 10003KT P6SM SCT040
     FM191100 04003KT P6SM BKN016=



Latest METAR

857
SAUS70 KWBC 182058
MTRGSP
METAR KGSP 182053Z 02004KT 10SM SCT110 25/18 A2997 RMK AO2 SLP138
T02500178 55012


USA.gov is the U.S. government's official web portal to all federal, state and local government web resources and services.